createdAt,value
2023-05-18T00:00:38.169Z,10.40
2023-05-18T00:03:05.442Z,10.30
2023-05-18T00:05:34.577Z,10.40
2023-05-18T00:08:01.719Z,10.20
2023-05-18T00:10:29.169Z,10.30
2023-05-18T00:12:56.095Z,10.20
2023-05-18T00:15:22.941Z,10.20
2023-05-18T00:17:54.694Z,10.20
2023-05-18T00:20:27.173Z,10.30
2023-05-18T00:22:53.981Z,10.20
2023-05-18T00:25:23.139Z,10.20
2023-05-18T00:27:51.898Z,10.20
2023-05-18T00:30:21.569Z,10.20
2023-05-18T00:32:48.508Z,10.20
2023-05-18T00:35:15.359Z,10.20
2023-05-18T00:37:42.145Z,10.10
2023-05-18T00:40:09.662Z,10.10
2023-05-18T00:42:36.551Z,10.20
2023-05-18T00:45:06.102Z,10.20
2023-05-18T00:47:33.002Z,10.20
2023-05-18T00:49:59.867Z,10.30
2023-05-18T00:52:27.422Z,10.30
2023-05-18T00:54:54.271Z,10.20
2023-05-18T00:57:21.688Z,10.30
2023-05-18T00:59:48.506Z,10.30
2023-05-18T01:02:15.399Z,10.20
2023-05-18T01:04:43.062Z,10.20
2023-05-18T01:07:11.225Z,10.00
2023-05-18T01:09:40.537Z,10.10
2023-05-18T01:12:14.683Z,10.00
2023-05-18T01:15:02.004Z,10.00
2023-05-18T01:17:53.832Z,10.10
2023-05-18T01:20:39.048Z,10.20
2023-05-18T01:23:30.052Z,10.20
2023-05-18T01:25:56.865Z,10.20
2023-05-18T01:28:29.945Z,10.10
2023-05-18T01:30:56.809Z,10.60
2023-05-18T01:33:25.222Z,10.00
2023-05-18T01:35:52.343Z,10.00
2023-05-18T01:38:21.307Z,10.00
2023-05-18T01:41:00.635Z,10.00
2023-05-18T01:43:31.804Z,10.00
2023-05-18T01:46:03.661Z,10.10
2023-05-18T01:53:39.669Z,9.90
2023-05-18T01:56:07.928Z,9.80
2023-05-18T01:58:37.007Z,9.90
2023-05-18T02:03:34.799Z,9.90
2023-05-18T02:06:01.864Z,9.90
2023-05-18T02:08:28.712Z,9.90
2023-05-18T02:10:56.270Z,9.90
2023-05-18T02:13:23.181Z,9.80
2023-05-18T02:15:50.093Z,9.80
2023-05-18T02:18:22.212Z,9.80
2023-05-18T02:20:49.472Z,9.80
2023-05-18T02:28:11.818Z,9.60
2023-05-18T02:30:38.632Z,9.60
2023-05-18T03:00:16.744Z,9.60
2023-05-18T03:20:04.636Z,9.60
2023-05-18T03:29:54.828Z,9.50
2023-05-18T03:32:21.689Z,9.50
2023-05-18T03:34:51.264Z,9.40
2023-05-18T03:39:47.432Z,9.50
2023-05-18T03:42:14.379Z,9.50
2023-05-18T03:44:43.913Z,9.60
2023-05-18T03:49:41.132Z,9.50
2023-05-18T03:52:08.475Z,9.50
2023-05-18T03:54:35.348Z,9.50
2023-05-18T03:57:02.192Z,9.60
2023-05-18T03:59:28.981Z,9.60
2023-05-18T04:01:56.676Z,9.60
2023-05-18T04:04:23.791Z,9.60
2023-05-18T04:06:53.718Z,9.50
2023-05-18T04:09:21.872Z,9.40
2023-05-18T04:11:51.263Z,9.40
2023-05-18T04:14:18.146Z,9.40
2023-05-18T04:19:13.768Z,9.30
2023-05-18T04:31:44.721Z,9.30
2023-05-18T05:53:08.312Z,10.10
2023-05-18T05:55:41.364Z,10.20
2023-05-18T05:58:11.770Z,10.20
2023-05-18T06:00:39.403Z,10.20
2023-05-18T06:03:06.361Z,10.30
2023-05-18T06:05:33.353Z,10.40
2023-05-18T06:08:03.321Z,10.40
2023-05-18T06:10:31.352Z,10.40
2023-05-18T06:12:58.598Z,10.40
2023-05-18T06:15:28.031Z,10.50
2023-05-18T06:17:55.344Z,10.60
2023-05-18T06:20:22.343Z,10.60
2023-05-18T06:22:49.242Z,10.50
2023-05-18T06:25:18.888Z,10.70
2023-05-18T06:27:46.161Z,10.50
2023-05-18T06:30:13.370Z,11.40
2023-05-18T06:32:40.316Z,10.50
2023-05-18T06:35:09.926Z,10.50
2023-05-18T06:37:36.729Z,10.70
2023-05-18T06:40:04.955Z,10.80
2023-05-18T06:47:26.877Z,11.30
2023-05-18T06:49:53.687Z,11.20
2023-05-18T06:52:20.544Z,11.30
2023-05-18T06:54:47.671Z,11.40
2023-05-18T06:57:14.504Z,11.50
2023-05-18T07:31:44.692Z,11.90
2023-05-18T09:28:37.976Z,13.50
2023-05-18T09:36:07.591Z,13.40
2023-05-18T09:41:11.016Z,13.40
2023-05-18T09:58:40.762Z,13.90
2023-05-18T10:16:03.582Z,14.10
2023-05-18T10:21:00.485Z,14.20
2023-05-18T10:23:30.633Z,14.20
2023-05-18T10:28:30.835Z,14.40
2023-05-18T10:45:57.244Z,14.90
2023-05-18T10:50:52.999Z,15.10
2023-05-18T11:03:13.664Z,15.70
2023-05-18T11:05:41.434Z,15.70
2023-05-18T11:08:08.572Z,15.80
2023-05-18T11:10:42.690Z,15.90
2023-05-18T11:13:11.571Z,16.10
2023-05-18T11:15:53.524Z,16.30
2023-05-18T11:18:20.742Z,16.50
2023-05-18T11:20:48.388Z,16.80
2023-05-18T11:23:16.283Z,17.10
2023-05-18T11:28:15.669Z,17.90
2023-05-18T11:30:42.472Z,18.00
2023-05-18T11:33:21.608Z,18.20
2023-05-18T11:39:06.954Z,18.80
2023-05-18T11:41:43.671Z,18.90
2023-05-18T11:44:16.348Z,18.60
2023-05-18T11:46:52.330Z,18.40
2023-05-18T11:54:39.926Z,17.80
2023-05-18T11:57:10.695Z,17.70
2023-05-18T11:59:39.689Z,17.70
2023-05-18T12:02:06.734Z,17.50
2023-05-18T12:04:34.204Z,17.40
2023-05-18T12:07:04.391Z,17.20
2023-05-18T12:09:31.858Z,17.20
2023-05-18T12:14:26.081Z,17.10
2023-05-18T12:19:23.829Z,17.00
2023-05-18T12:21:50.736Z,17.10
2023-05-18T12:24:17.599Z,18.40
2023-05-18T12:26:46.659Z,16.90
2023-05-18T12:29:20.192Z,16.90
2023-05-18T12:31:47.777Z,16.90
2023-05-18T12:36:51.676Z,16.80
2023-05-18T12:39:18.486Z,16.90
2023-05-18T12:41:45.475Z,16.80
2023-05-18T12:44:14.451Z,16.80
2023-05-18T12:46:42.542Z,16.80
2023-05-18T12:49:11.961Z,16.80
2023-05-18T12:51:39.633Z,16.70
2023-05-18T12:54:07.017Z,16.60
2023-05-18T12:56:52.858Z,16.60
2023-05-18T12:59:19.962Z,16.50
2023-05-18T13:01:46.938Z,16.50
2023-05-18T13:04:14.049Z,16.50
2023-05-18T13:06:41.876Z,16.50
2023-05-18T13:09:12.934Z,16.50
2023-05-18T13:11:39.985Z,16.50
2023-05-18T13:14:07.897Z,16.40
2023-05-18T13:16:37.452Z,16.40
2023-05-18T13:19:06.990Z,16.40
2023-05-18T13:21:34.595Z,16.40
2023-05-18T13:24:02.193Z,16.40
2023-05-18T13:26:29.062Z,16.30
2023-05-18T13:28:58.801Z,16.30
2023-05-18T13:31:25.714Z,16.30
2023-05-18T13:33:52.690Z,16.30
2023-05-18T13:36:19.543Z,16.30
2023-05-18T13:41:15.352Z,16.10
2023-05-18T13:43:42.797Z,16.10
2023-05-18T13:46:09.896Z,15.90
2023-05-18T13:48:36.819Z,15.80
2023-05-18T13:51:03.733Z,15.70
2023-05-18T13:53:30.761Z,15.70
2023-05-18T13:55:57.644Z,15.60
2023-05-18T13:58:25.827Z,15.50
2023-05-18T14:00:54.443Z,15.50
2023-05-18T14:03:21.622Z,15.40
2023-05-18T14:05:48.645Z,15.40
2023-05-18T14:08:15.542Z,15.30
2023-05-18T14:10:44.550Z,15.30
2023-05-18T14:13:13.571Z,15.30
2023-05-18T14:15:40.390Z,15.30
2023-05-18T14:18:07.304Z,15.20
2023-05-18T14:20:34.775Z,15.20
2023-05-18T14:23:03.601Z,15.20
2023-05-18T14:25:32.516Z,15.10
2023-05-18T14:27:59.350Z,15.10
2023-05-18T14:30:26.233Z,15.10
2023-05-18T14:32:53.130Z,15.10
2023-05-18T14:35:19.959Z,15.10
2023-05-18T14:37:48.911Z,15.10
2023-05-18T14:40:15.712Z,15.00
2023-05-18T14:42:42.542Z,15.00
2023-05-18T14:45:17.486Z,15.00
2023-05-18T14:47:44.310Z,15.00
2023-05-18T14:50:11.152Z,15.00
2023-05-18T14:52:40.464Z,15.00
2023-05-18T14:55:07.689Z,15.00
2023-05-18T14:57:34.492Z,15.00
2023-05-18T15:00:01.296Z,15.00
2023-05-18T15:02:30.624Z,14.90
2023-05-18T15:04:59.973Z,14.90
2023-05-18T15:07:26.871Z,14.90
2023-05-18T15:09:56.462Z,14.90
2023-05-18T15:12:25.435Z,14.90
2023-05-18T15:14:54.538Z,14.90
2023-05-18T15:17:21.408Z,14.90
2023-05-18T15:19:48.286Z,14.90
2023-05-18T15:22:17.279Z,14.90
2023-05-18T15:24:44.043Z,14.90
2023-05-18T15:27:10.905Z,14.90
2023-05-18T15:29:37.702Z,14.90
2023-05-18T15:32:04.827Z,15.00
2023-05-18T15:34:33.503Z,14.90
2023-05-18T15:37:01.162Z,14.90
2023-05-18T15:39:28.014Z,14.90
2023-05-18T15:41:54.839Z,14.80
2023-05-18T15:44:21.656Z,14.80
2023-05-18T15:46:50.691Z,14.80
2023-05-18T15:49:21.730Z,14.80
2023-05-18T15:51:48.517Z,14.80
2023-05-18T15:54:15.350Z,14.80
2023-05-18T15:56:42.245Z,14.80
2023-05-18T15:59:11.921Z,14.70
2023-05-18T16:01:38.756Z,14.70
2023-05-18T16:04:08.192Z,14.70
2023-05-18T16:06:35.522Z,14.80
2023-05-18T16:09:04.967Z,14.80
2023-05-18T16:11:32.147Z,14.70
2023-05-18T16:14:00.521Z,14.80
2023-05-18T16:16:27.502Z,14.70
2023-05-18T16:18:56.891Z,14.80
2023-05-18T16:21:26.359Z,14.70
2023-05-18T16:23:59.428Z,14.70
2023-05-18T16:26:28.543Z,14.70
2023-05-18T16:28:55.513Z,14.70
2023-05-18T16:31:22.364Z,14.70
2023-05-18T16:33:49.194Z,14.70
2023-05-18T16:36:18.232Z,14.70
2023-05-18T16:38:45.050Z,14.70
2023-05-18T16:41:17.111Z,14.70
2023-05-18T16:43:43.924Z,14.70
2023-05-18T16:46:11.374Z,14.70
2023-05-18T16:48:38.219Z,14.70
2023-05-18T16:51:07.551Z,14.70
2023-05-18T16:53:36.845Z,14.70
2023-05-18T16:56:06.493Z,14.80
2023-05-18T16:58:35.788Z,14.70
2023-05-18T17:03:38.980Z,14.80
2023-05-18T17:06:06.413Z,14.80
2023-05-18T17:08:33.220Z,14.70
2023-05-18T17:11:00.025Z,14.80
2023-05-18T17:13:26.839Z,14.70
2023-05-18T17:15:56.314Z,14.70
2023-05-18T17:18:23.324Z,14.70
2023-05-18T17:20:50.122Z,14.70
2023-05-18T17:23:19.287Z,14.70
2023-05-18T17:25:46.424Z,14.70
2023-05-18T17:28:13.908Z,14.70
2023-05-18T17:30:40.852Z,14.70
2023-05-18T17:33:07.777Z,14.70
2023-05-18T17:35:34.640Z,14.70
2023-05-18T17:38:01.555Z,14.70
2023-05-18T17:40:28.411Z,14.70
2023-05-18T17:42:55.222Z,14.70
2023-05-18T17:45:22.071Z,14.70
2023-05-18T17:47:48.935Z,14.70
2023-05-18T17:50:20.157Z,14.70
2023-05-18T17:52:46.924Z,14.70
2023-05-18T17:55:15.143Z,14.70
2023-05-18T17:57:45.334Z,14.60
2023-05-18T18:02:42.730Z,14.70
2023-05-18T18:05:09.912Z,14.70
2023-05-18T18:07:39.326Z,14.70
2023-05-18T18:10:09.473Z,14.60
2023-05-18T18:12:36.318Z,14.70
2023-05-18T18:15:03.188Z,14.70
2023-05-18T18:17:30.077Z,14.60
2023-05-18T18:19:56.989Z,14.60
2023-05-18T18:22:28.328Z,14.70
2023-05-18T18:24:58.049Z,14.60
2023-05-18T18:27:25.253Z,14.60
2023-05-18T18:29:52.029Z,14.50
2023-05-18T18:32:23.520Z,14.50
2023-05-18T18:34:52.696Z,14.50
2023-05-18T18:37:21.978Z,14.50
2023-05-18T18:39:51.364Z,14.50
2023-05-18T18:42:21.332Z,14.50
2023-05-18T18:44:48.502Z,14.40
2023-05-18T18:47:17.795Z,14.40
2023-05-18T18:49:44.670Z,14.40
2023-05-18T18:52:13.612Z,14.40
2023-05-18T18:54:40.758Z,14.50
2023-05-18T18:57:07.644Z,14.50
2023-05-18T18:59:37.034Z,14.40
2023-05-18T19:02:04.041Z,14.40
2023-05-18T19:04:33.110Z,14.40
2023-05-18T19:07:03.259Z,14.40
2023-05-18T19:09:34.737Z,14.40
2023-05-18T19:12:01.860Z,14.40
2023-05-18T19:14:28.733Z,14.40
2023-05-18T19:16:56.222Z,14.40
2023-05-18T19:19:23.318Z,14.40
2023-05-18T19:21:50.603Z,14.40
2023-05-18T19:24:19.837Z,14.40
2023-05-18T19:26:46.629Z,14.40
2023-05-18T19:29:14.365Z,14.40
2023-05-18T19:31:43.491Z,14.40
2023-05-18T19:34:12.683Z,14.40
2023-05-18T19:36:39.538Z,14.40
2023-05-18T19:39:06.319Z,14.40
2023-05-18T19:41:33.197Z,14.40
2023-05-18T19:43:59.991Z,14.40
2023-05-18T19:46:27.063Z,14.40
2023-05-18T19:48:56.338Z,14.40
2023-05-18T19:51:23.716Z,14.30
2023-05-18T19:53:50.725Z,14.40
2023-05-18T19:56:21.949Z,14.30
2023-05-18T19:58:52.661Z,14.30
2023-05-18T20:01:20.333Z,14.30
2023-05-18T20:03:49.838Z,14.30
2023-05-18T20:11:11.647Z,14.40
2023-05-18T20:13:38.537Z,14.40
2023-05-18T20:16:06.819Z,14.40
2023-05-18T20:21:07.121Z,14.40
2023-05-18T20:23:36.158Z,14.40
2023-05-18T20:31:03.278Z,14.30
2023-05-18T20:33:34.324Z,14.40
2023-05-18T20:36:01.846Z,14.30
2023-05-18T20:38:31.129Z,14.30
2023-05-18T20:41:01.688Z,14.20
2023-05-18T20:43:33.359Z,14.20
2023-05-18T20:46:00.239Z,14.20
2023-05-18T20:48:28.958Z,14.20
2023-05-18T20:50:55.818Z,14.10
2023-05-18T20:53:26.032Z,14.10
2023-05-18T20:55:54.344Z,14.10
2023-05-18T20:58:21.511Z,14.10
2023-05-18T21:00:49.088Z,14.10
2023-05-18T21:03:18.422Z,14.10
2023-05-18T21:05:45.446Z,14.10
2023-05-18T21:08:12.286Z,14.10
2023-05-18T21:10:39.119Z,14.10
2023-05-18T21:13:06.471Z,14.00
2023-05-18T21:15:36.667Z,14.00
2023-05-18T21:18:04.157Z,14.00
2023-05-18T21:20:32.053Z,14.00
2023-05-18T21:22:59.129Z,14.00
2023-05-18T21:25:26.055Z,14.10
2023-05-18T21:27:52.811Z,14.10
2023-05-18T21:30:19.655Z,14.10
2023-05-18T21:32:49.245Z,14.10
2023-05-18T21:35:16.257Z,14.10
2023-05-18T21:37:43.048Z,14.10
2023-05-18T21:40:12.401Z,14.10
2023-05-18T21:42:45.177Z,14.10
2023-05-18T21:45:12.839Z,14.10
2023-05-18T21:47:39.690Z,14.00
2023-05-18T21:50:12.146Z,14.00
2023-05-18T21:52:38.961Z,14.00
2023-05-18T21:55:06.503Z,14.00
2023-05-18T21:57:34.426Z,14.00
2023-05-18T22:00:01.679Z,14.00
2023-05-18T22:02:30.684Z,14.00
2023-05-18T22:04:57.513Z,14.00
2023-05-18T22:07:24.340Z,14.00
2023-05-18T22:09:53.313Z,14.00
2023-05-18T22:12:25.771Z,13.90
2023-05-18T22:14:55.105Z,13.90
2023-05-18T22:17:28.146Z,13.90
2023-05-18T22:20:00.651Z,13.90
2023-05-18T22:22:30.932Z,13.90
2023-05-18T22:24:58.163Z,13.80
2023-05-18T22:27:27.496Z,13.80
2023-05-18T22:29:54.313Z,13.80
2023-05-18T22:32:21.320Z,13.80
2023-05-18T22:34:48.400Z,13.80
2023-05-18T22:37:17.445Z,13.70
2023-05-18T22:39:44.518Z,13.70
2023-05-18T22:42:13.604Z,13.70
2023-05-18T22:44:57.701Z,13.60
2023-05-18T22:47:28.292Z,13.60
2023-05-18T22:49:55.165Z,13.60
2023-05-18T22:52:24.468Z,13.60
2023-05-18T22:54:51.327Z,13.60
2023-05-18T22:57:28.964Z,13.60
2023-05-18T22:59:58.269Z,13.60
2023-05-18T23:02:25.095Z,13.50
2023-05-18T23:04:54.298Z,13.50
2023-05-18T23:07:35.235Z,13.50
2023-05-18T23:10:09.327Z,13.50
2023-05-18T23:12:43.465Z,13.50
2023-05-18T23:15:12.861Z,13.50
2023-05-18T23:17:41.417Z,13.50
2023-05-18T23:20:11.689Z,13.50
2023-05-18T23:22:40.855Z,13.50
2023-05-18T23:25:10.008Z,13.50
2023-05-18T23:27:49.535Z,13.40
2023-05-18T23:30:19.054Z,13.40
2023-05-18T23:32:48.865Z,13.40
2023-05-18T23:35:16.425Z,13.40
2023-05-18T23:37:43.478Z,13.40
2023-05-18T23:40:17.548Z,13.40
2023-05-18T23:42:47.594Z,13.40
2023-05-18T23:45:15.182Z,13.40
2023-05-18T23:47:44.754Z,13.40
2023-05-18T23:50:18.215Z,13.40
2023-05-18T23:52:45.121Z,13.40
2023-05-18T23:55:12.089Z,13.40
2023-05-18T23:57:44.042Z,13.40
